Time;durP1;ratioP1;P1;durP2;ratioP2;P2;SDS_P1;SDS_P2;PMS_P1;PMS_P2;Temp;Humidity;BMP_temperature;BMP_pressure;BME280_temperature;BME280_humidity;BME280_pressure;Samples;Min_cycle;Max_cycle;Signal;HPM_P1;HPM_P2
2021/04/24 00:02:05;;;;;;;9.30;6.03;;;;;;;6.53;68.64;99378.53;4721897;29;104796;-74
2021/04/24 00:04:32;;;;;;;7.77;4.90;;;;;;;6.56;67.82;99379.25;4745737;29;103096;-76
2021/04/24 00:06:59;;;;;;;10.63;6.07;;;;;;;6.64;67.82;99385.00;4757989;29;103118;-75
2021/04/24 00:09:26;;;;;;;7.50;5.17;;;;;;;6.71;67.13;99382.97;4753834;29;104142;-75
2021/04/24 00:11:53;;;;;;;8.73;5.50;;;;;;;6.63;68.05;99379.81;4741492;29;104028;-76
2021/04/24 00:14:20;;;;;;;9.60;6.50;;;;;;;6.39;69.18;99377.38;4744389;29;103234;-75
2021/04/24 00:16:47;;;;;;;7.27;6.13;;;;;;;6.40;68.98;99379.06;4739345;29;102918;-75
2021/04/24 00:19:15;;;;;;;8.73;5.70;;;;;;;6.38;68.65;99375.69;4738748;29;104659;-75
2021/04/24 00:21:42;;;;;;;7.43;5.37;;;;;;;6.46;67.93;99371.88;4752420;29;103880;-76
2021/04/24 00:24:10;;;;;;;7.77;5.67;;;;;;;6.45;68.03;99380.66;4739108;29;102795;-74
2021/04/24 00:26:37;;;;;;;7.40;5.20;;;;;;;6.25;68.36;99378.91;4739515;29;103325;-75
2021/04/24 00:29:04;;;;;;;8.50;6.03;;;;;;;6.36;67.22;99381.91;4737817;29;104046;-74
2021/04/24 00:31:32;;;;;;;5.20;4.40;;;;;;;6.50;65.94;99376.03;4748424;29;103774;-75
2021/04/24 00:33:59;;;;;;;8.67;5.90;;;;;;;6.51;66.88;99372.50;4754816;29;103402;-74
2021/04/24 00:36:27;;;;;;;10.93;5.67;;;;;;;6.29;68.29;99369.97;4757950;29;102728;-73
2021/04/24 00:38:54;;;;;;;7.50;4.90;;;;;;;6.32;68.30;99369.84;4756617;29;105086;-74
2021/04/24 00:41:21;;;;;;;9.87;5.87;;;;;;;6.21;68.83;99358.97;4746726;29;104326;-76
2021/04/24 00:43:48;;;;;;;9.27;5.80;;;;;;;6.11;69.07;99355.91;4738621;29;103103;-77
2021/04/24 00:46:17;;;;;;;9.00;5.20;;;;;;;6.17;68.56;99350.41;4738473;29;102940;-77
2021/04/24 00:48:44;;;;;;;9.23;6.10;;;;;;;5.95;69.77;99354.84;4750442;29;104074;-74
2021/04/24 00:51:12;;;;;;;8.37;5.10;;;;;;;5.87;70.02;99356.97;4760263;29;109537;-74
2021/04/24 00:53:40;;;;;;;7.37;4.33;;;;;;;6.00;68.98;99354.66;4742736;29;102993;-74
2021/04/24 00:56:07;;;;;;;7.03;4.67;;;;;;;6.17;68.08;99358.28;4729745;29;103371;-75
2021/04/24 00:58:34;;;;;;;11.27;6.37;;;;;;;6.03;69.64;99363.28;4749262;29;105018;-76
2021/04/24 01:01:02;;;;;;;13.27;7.47;;;;;;;5.71;70.84;99350.63;4724744;29;103568;-76
2021/04/24 01:03:29;;;;;;;9.00;6.10;;;;;;;5.85;69.52;99348.31;4739558;29;102776;-75
2021/04/24 01:05:56;;;;;;;10.87;7.10;;;;;;;5.59;71.01;99349.38;4742381;29;103688;-76
2021/04/24 01:08:23;;;;;;;12.43;7.13;;;;;;;5.71;70.49;99351.50;4740706;29;103759;-77
2021/04/24 01:10:51;;;;;;;12.47;6.60;;;;;;;5.76;70.12;99343.41;4740018;29;103875;-75
2021/04/24 01:13:18;;;;;;;7.17;5.23;;;;;;;5.69;70.10;99342.00;4754952;29;103555;-74
2021/04/24 01:15:47;;;;;;;13.53;7.07;;;;;;;5.86;69.09;99350.03;4741455;29;103247;-74
2021/04/24 01:18:14;;;;;;;14.77;7.87;;;;;;;5.72;70.21;99339.25;4741235;29;104027;-75
2021/04/24 01:20:42;;;;;;;15.03;7.63;;;;;;;5.28;72.50;99336.69;4741771;29;103303;-80
2021/04/24 01:23:10;;;;;;;12.90;8.20;;;;;;;5.28;72.57;99335.00;4743552;29;103323;-80
2021/04/24 01:25:39;;;;;;;10.03;6.67;;;;;;;5.47;71.48;99341.19;4742607;29;103081;-80
2021/04/24 01:28:08;;;;;;;10.10;7.03;;;;;;;5.59;70.10;99343.28;4743147;29;103453;-77
2021/04/24 01:30:37;;;;;;;12.83;6.47;;;;;;;5.63;70.36;99345.72;4742714;29;105094;-77
2021/04/24 01:33:07;;;;;;;9.93;7.07;;;;;;;5.54;70.89;99333.00;4741650;29;103075;-79
2021/04/24 01:35:34;;;;;;;12.93;6.80;;;;;;;5.43;71.41;99337.84;4741979;29;102953;-79
2021/04/24 01:38:03;;;;;;;10.10;6.83;;;;;;;5.39;71.21;99335.41;4741829;29;103998;-77
2021/04/24 01:40:31;;;;;;;8.43;5.50;;;;;;;5.53;70.21;99340.94;4753972;29;103699;-78
2021/04/24 01:42:58;;;;;;;9.30;5.60;;;;;;;5.51;70.77;99334.88;4741246;29;102976;-80
2021/04/24 01:45:26;;;;;;;8.10;5.80;;;;;;;5.50;70.66;99331.41;4745485;29;103143;-80
2021/04/24 01:47:54;;;;;;;7.57;4.93;;;;;;;5.56;70.13;99335.53;4758034;29;104635;-78
2021/04/24 01:50:24;;;;;;;7.43;5.03;;;;;;;5.60;70.59;99326.66;4759547;29;104006;-78
2021/04/24 01:52:53;;;;;;;7.73;5.20;;;;;;;5.62;70.11;99324.81;4748420;29;103056;-81
2021/04/24 01:55:23;;;;;;;7.23;4.80;;;;;;;5.53;70.46;99335.69;4741878;29;102995;-81
2021/04/24 01:57:53;;;;;;;9.17;5.93;;;;;;;5.54;71.25;99321.66;4756228;29;104421;-79
2021/04/24 02:00:24;;;;;;;6.70;4.93;;;;;;;5.58;69.33;99323.25;4740744;29;104442;-79
2021/04/24 02:02:52;;;;;;;7.03;4.63;;;;;;;5.51;70.31;99337.50;4745345;29;103493;-80
2021/04/24 02:05:20;;;;;;;7.37;6.03;;;;;;;5.32;71.50;99331.34;4742294;29;103352;-78
2021/04/24 02:07:55;;;;;;;9.17;6.30;;;;;;;4.85;74.10;99331.50;4752544;29;103898;-79
2021/04/24 02:10:23;;;;;;;7.90;6.00;;;;;;;4.75;74.21;99335.38;4749724;29;103769;-78
2021/04/24 02:12:52;;;;;;;7.80;5.70;;;;;;;5.04;72.51;99334.22;4749212;29;103018;-79
2021/04/24 02:15:19;;;;;;;5.90;4.50;;;;;;;5.12;71.86;99330.38;4743172;29;104893;-79
2021/04/24 02:17:46;;;;;;;8.23;5.17;;;;;;;4.97;72.90;99338.84;4722941;29;110100;-82
2021/04/24 02:20:15;;;;;;;9.90;5.90;;;;;;;4.96;73.51;99338.91;4747912;29;104949;-81
2021/04/24 02:22:42;;;;;;;8.83;5.87;;;;;;;4.79;74.04;99336.97;4749385;29;102889;-77
2021/04/24 02:25:12;;;;;;;9.30;5.83;;;;;;;4.81;73.97;99335.13;4740847;29;103458;-78
2021/04/24 02:27:39;;;;;;;9.60;5.70;;;;;;;4.93;72.99;99331.19;4739964;29;103931;-79
2021/04/24 02:30:09;;;;;;;8.37;5.47;;;;;;;4.99;71.90;99325.69;4746431;29;104213;-79
2021/04/24 02:32:38;;;;;;;7.70;4.40;;;;;;;5.07;71.69;99329.72;4756667;29;103144;-82
2021/04/24 02:35:07;;;;;;;7.00;5.03;;;;;;;5.17;70.72;99330.19;4723425;29;103070;-82
2021/04/24 02:37:35;;;;;;;8.03;5.70;;;;;;;5.03;72.73;99330.75;4751066;29;104124;-78
2021/04/24 02:40:04;;;;;;;9.93;5.80;;;;;;;4.71;74.33;99333.78;4756767;29;103777;-77
2021/04/24 02:42:31;;;;;;;12.03;6.47;;;;;;;4.32;76.35;99335.31;4722379;29;103098;-81
2021/04/24 02:45:05;;;;;;;9.43;5.47;;;;;;;4.48;75.43;99336.44;4739651;29;103122;-79
2021/04/24 02:47:33;;;;;;;9.07;5.60;;;;;;;4.53;74.90;99330.09;4748780;29;103651;-78
2021/04/24 02:50:01;;;;;;;7.70;4.80;;;;;;;4.71;72.91;99331.16;4756344;29;104346;-78
2021/04/24 02:52:28;;;;;;;7.07;5.07;;;;;;;4.79;73.07;99325.63;4751979;29;103208;-77
2021/04/24 02:54:55;;;;;;;7.43;5.87;;;;;;;4.85;73.17;99326.25;4744182;29;103458;-78
2021/04/24 02:57:22;;;;;;;9.87;5.90;;;;;;;4.66;74.68;99323.47;4723929;29;104330;-77
2021/04/24 02:59:49;;;;;;;9.80;5.93;;;;;;;4.49;74.91;99328.50;4727893;29;112709;-77
2021/04/24 03:02:17;;;;;;;9.97;6.03;;;;;;;4.61;73.64;99322.81;4721694;29;103202;-77
2021/04/24 03:04:45;;;;;;;8.20;6.10;;;;;;;4.58;73.86;99319.44;4745127;29;104613;-78
2021/04/24 03:07:12;;;;;;;7.07;4.97;;;;;;;4.58;73.81;99322.06;4757815;29;104942;-79
2021/04/24 03:09:39;;;;;;;8.83;5.07;;;;;;;4.49;74.34;99323.28;4756009;29;104588;-80
2021/04/24 03:12:07;;;;;;;6.27;5.10;;;;;;;4.46;75.10;99318.16;4741641;29;103329;-81
2021/04/24 03:14:34;;;;;;;7.87;5.57;;;;;;;4.25;75.35;99321.59;4738207;29;102809;-77
2021/04/24 03:17:01;;;;;;;8.67;6.37;;;;;;;4.37;74.87;99317.66;4723730;29;105009;-77
2021/04/24 03:19:28;;;;;;;9.43;6.10;;;;;;;4.46;74.21;99312.91;4752392;29;103898;-79
2021/04/24 03:21:56;;;;;;;12.80;6.73;;;;;;;4.33;75.55;99310.81;4752449;29;103005;-77
2021/04/24 03:24:23;;;;;;;10.23;6.13;;;;;;;3.86;77.41;99305.59;4739998;29;103046;-77
2021/04/24 03:26:50;;;;;;;9.60;6.40;;;;;;;3.80;77.98;99304.94;4737420;29;104165;-76
2021/04/24 03:29:17;;;;;;;10.07;6.10;;;;;;;4.00;76.83;99303.31;4747012;29;103818;-77
2021/04/24 03:31:44;;;;;;;8.67;6.30;;;;;;;3.91;77.50;99302.78;4740455;29;103223;-80
2021/04/24 03:34:11;;;;;;;7.57;4.93;;;;;;;4.09;76.40;99307.38;4740023;29;103075;-79
2021/04/24 03:36:38;;;;;;;12.03;6.60;;;;;;;3.95;76.41;99304.41;4739727;29;109504;-76
2021/04/24 03:39:06;;;;;;;11.53;6.60;;;;;;;3.70;77.79;99307.03;4753279;29;103139;-79
2021/04/24 03:41:33;;;;;;;11.00;5.63;;;;;;;3.82;77.50;99303.97;4746465;29;102972;-81
2021/04/24 03:44:00;;;;;;;8.57;5.53;;;;;;;3.95;76.39;99307.03;4740645;29;103288;-76
2021/04/24 03:46:27;;;;;;;7.13;5.03;;;;;;;4.03;75.48;99308.44;4721472;29;103874;-76
2021/04/24 03:48:54;;;;;;;5.90;4.07;;;;;;;4.08;75.23;99310.88;4720509;29;105609;-76
2021/04/24 03:51:21;;;;;;;7.87;5.50;;;;;;;4.14;74.93;99315.03;4753753;29;102963;-81
2021/04/24 03:53:48;;;;;;;7.93;5.47;;;;;;;3.88;76.47;99311.59;4737973;29;104257;-79
2021/04/24 03:56:17;;;;;;;9.20;6.03;;;;;;;3.81;76.70;99312.75;4750020;29;109175;-78
2021/04/24 03:58:44;;;;;;;11.17;6.10;;;;;;;3.50;78.67;99319.94;4744286;29;104149;-78
2021/04/24 04:01:11;;;;;;;9.63;5.53;;;;;;;3.73;76.47;99320.00;4724729;29;103337;-77
2021/04/24 04:03:38;;;;;;;10.67;5.03;;;;;;;3.79;76.72;99319.75;4756327;29;103029;-81
2021/04/24 04:06:05;;;;;;;8.17;5.20;;;;;;;3.86;75.46;99316.03;4747896;29;104789;-79
2021/04/24 04:08:32;;;;;;;12.93;6.60;;;;;;;3.72;76.98;99318.28;4737521;29;103265;-82
2021/04/24 04:11:00;;;;;;;14.40;7.07;;;;;;;3.64;77.46;99319.47;4741343;29;103174;-83
2021/04/24 04:13:27;;;;;;;13.70;7.33;;;;;;;3.32;79.22;99320.53;4753795;29;102825;-83
2021/04/24 04:15:54;;;;;;;11.17;6.63;;;;;;;3.10;80.48;99324.75;4735126;29;104469;-79
2021/04/24 04:18:21;;;;;;;14.37;6.60;;;;;;;3.13;80.65;99332.50;4740202;29;105971;-81
2021/04/24 04:20:51;;;;;;;8.90;5.47;;;;;;;3.52;78.32;99331.19;4749216;29;103263;-75
2021/04/24 04:23:21;;;;;;;10.37;5.00;;;;;;;3.77;75.78;99332.03;4735493;29;102975;-77
2021/04/24 04:25:50;;;;;;;9.50;6.30;;;;;;;3.57;77.44;99339.72;4736508;29;103468;-77
2021/04/24 04:28:18;;;;;;;9.27;5.77;;;;;;;3.45;79.04;99337.53;4737895;29;104136;-76
2021/04/24 04:30:47;;;;;;;10.03;5.33;;;;;;;3.58;77.67;99337.97;4739048;29;103541;-75
2021/04/24 04:33:14;;;;;;;6.37;4.80;;;;;;;3.71;76.80;99336.63;4738638;29;102993;-79
2021/04/24 04:35:43;;;;;;;10.53;6.57;;;;;;;3.72;77.11;99339.19;4741924;29;103760;-75
2021/04/24 04:38:10;;;;;;;10.77;6.50;;;;;;;3.51;78.51;99339.91;4751656;29;105017;-88
2021/04/24 04:40:38;;;;;;;18.07;7.03;;;;;;;3.44;78.99;99335.81;4746176;29;102697;-77
2021/04/24 04:43:05;;;;;;;8.50;5.47;;;;;;;3.56;77.98;99335.41;4728710;29;103752;-80
2021/04/24 04:45:33;;;;;;;8.50;4.47;;;;;;;3.78;76.49;99341.59;4735198;29;104274;-76
2021/04/24 04:48:01;;;;;;;11.60;6.70;;;;;;;3.74;77.12;99342.59;4737202;29;103124;-81
2021/04/24 04:50:31;;;;;;;13.50;7.07;;;;;;;3.57;78.90;99349.31;4738694;29;103655;-78
2021/04/24 04:52:58;;;;;;;6.57;5.47;;;;;;;3.68;78.23;99348.03;4735034;29;103798;-79
2021/04/24 04:55:26;;;;;;;9.23;6.50;;;;;;;3.68;78.99;99350.66;4727593;29;103994;-80
2021/04/24 04:57:53;;;;;;;11.03;5.87;;;;;;;3.82;77.40;99345.81;4746366;29;104031;-85
2021/04/24 05:00:22;;;;;;;11.17;5.67;;;;;;;3.91;77.81;99355.94;4729999;29;103692;-83
2021/04/24 05:02:49;;;;;;;6.37;4.97;;;;;;;4.12;76.25;99356.09;4747528;29;103288;-80
2021/04/24 05:05:18;;;;;;;9.93;6.20;;;;;;;3.91;77.84;99350.72;4746405;29;103984;-77
2021/04/24 05:07:48;;;;;;;17.07;6.30;;;;;;;3.86;78.18;99351.78;4748168;29;106840;-83
2021/04/24 05:10:22;;;;;;;11.47;6.80;;;;;;;3.86;78.43;99352.63;4722498;29;103513;-89
2021/04/24 05:12:50;;;;;;;14.23;6.50;;;;;;;3.97;77.49;99355.72;4726020;29;103182;-90
2021/04/24 05:15:17;;;;;;;6.87;4.70;;;;;;;4.19;76.61;99352.34;4727292;29;104813;-87
2021/04/24 05:17:45;;;;;;;11.47;5.57;;;;;;;4.29;77.01;99349.34;4730855;29;104592;-79
2021/04/24 05:20:14;;;;;;;12.73;6.17;;;;;;;4.42;77.36;99354.97;4737116;29;104033;-81
2021/04/24 05:22:42;;;;;;;7.50;4.90;;;;;;;4.63;75.84;99356.78;4730355;29;104243;-82
2021/04/24 05:25:11;;;;;;;8.93;5.53;;;;;;;4.71;76.29;99357.34;4732205;29;103889;-84
2021/04/24 05:27:39;;;;;;;11.77;6.00;;;;;;;4.89;74.79;99363.63;4728359;29;103721;-79
2021/04/24 05:30:07;;;;;;;11.63;5.87;;;;;;;4.87;75.38;99361.06;4727164;29;103345;-73
2021/04/24 05:32:34;;;;;;;8.03;5.20;;;;;;;5.03;74.51;99361.31;4741054;29;103002;-80
2021/04/24 05:35:01;;;;;;;9.40;5.87;;;;;;;5.15;73.69;99363.47;4733154;29;104084;-79
2021/04/24 05:37:28;;;;;;;7.07;4.97;;;;;;;5.32;73.24;99362.78;4742538;29;104708;-77
2021/04/24 05:39:56;;;;;;;9.43;4.90;;;;;;;5.40;71.89;99361.56;4756691;29;102999;-79
2021/04/24 05:42:28;;;;;;;7.87;4.30;;;;;;;5.60;71.19;99353.72;4738938;29;103267;-79
2021/04/24 05:44:55;;;;;;;7.47;4.63;;;;;;;5.73;70.96;99364.53;4743930;29;104096;-79
2021/04/24 05:47:22;;;;;;;6.27;4.30;;;;;;;5.88;70.37;99363.91;4738615;29;103353;-77
2021/04/24 05:49:50;;;;;;;8.13;4.90;;;;;;;6.01;69.82;99364.22;4744672;29;102853;-79
2021/04/24 05:52:16;;;;;;;5.90;4.87;;;;;;;6.12;70.06;99368.09;4752120;29;103124;-80
2021/04/24 05:54:44;;;;;;;8.07;5.00;;;;;;;6.25;70.11;99366.66;4742799;29;103561;-77
2021/04/24 05:57:12;;;;;;;7.67;5.40;;;;;;;6.37;69.95;99358.22;4738853;29;103454;-80
2021/04/24 05:59:39;;;;;;;6.90;4.93;;;;;;;6.50;69.48;99368.16;4730332;29;102957;-77
2021/04/24 06:02:06;;;;;;;5.70;4.80;;;;;;;6.56;70.20;99362.66;4755080;29;102937;-80
2021/04/24 06:04:33;;;;;;;6.23;5.03;;;;;;;6.66;70.15;99364.78;4757242;29;103790;-77
2021/04/24 06:07:01;;;;;;;15.33;7.37;;;;;;;6.59;69.89;99370.38;4757702;29;104142;-79
2021/04/24 06:09:28;;;;;;;9.70;6.50;;;;;;;6.71;69.69;99360.16;4755417;29;103219;-81
2021/04/24 06:11:55;;;;;;;11.60;7.40;;;;;;;6.75;70.64;99366.97;4745616;29;103035;-81
2021/04/24 06:14:23;;;;;;;10.97;6.30;;;;;;;6.86;70.88;99359.44;4756282;29;104482;-77
2021/04/24 06:16:50;;;;;;;8.30;5.90;;;;;;;7.12;70.57;99363.47;4737097;29;104001;-78
2021/04/24 06:19:17;;;;;;;6.37;5.77;;;;;;;7.33;69.22;99367.69;4754641;29;103481;-78
2021/04/24 06:21:44;;;;;;;10.53;6.97;;;;;;;7.46;68.03;99363.56;4733107;29;103559;-77
2021/04/24 06:24:11;;;;;;;8.50;6.77;;;;;;;7.64;67.91;99361.75;4739280;29;105132;-77
2021/04/24 06:26:38;;;;;;;10.50;6.00;;;;;;;7.80;68.47;99356.59;4740740;29;103818;-79
2021/04/24 06:29:05;;;;;;;7.37;5.67;;;;;;;7.91;68.01;99357.75;4746155;29;102943;-78
2021/04/24 06:31:38;;;;;;;9.57;6.97;;;;;;;7.98;67.98;99356.50;4741266;29;103154;-78
2021/04/24 06:34:05;;;;;;;9.43;7.13;;;;;;;8.08;67.97;99364.78;4746210;29;104012;-78
2021/04/24 06:36:32;;;;;;;9.20;7.33;;;;;;;8.25;67.42;99364.75;4746819;29;104661;-77
2021/04/24 06:39:04;;;;;;;11.77;7.13;;;;;;;7.99;67.63;99368.75;4739967;29;102686;-78
2021/04/24 06:41:32;;;;;;;13.30;8.47;;;;;;;8.00;68.14;99370.44;4747675;29;104510;-77
2021/04/24 06:43:59;;;;;;;8.03;6.27;;;;;;;8.18;67.64;99364.22;4737524;29;103916;-78
2021/04/24 06:46:26;;;;;;;10.23;7.10;;;;;;;8.43;66.50;99361.19;4754775;29;108654;-76
2021/04/24 06:48:54;;;;;;;9.10;5.93;;;;;;;8.67;65.21;99362.47;4757055;29;103224;-77
2021/04/24 06:51:21;;;;;;;15.17;8.13;;;;;;;8.18;65.60;99361.59;4744180;29;104717;-74
2021/04/24 06:53:48;;;;;;;12.07;6.67;;;;;;;8.60;64.13;99355.88;4741944;29;103804;-81
2021/04/24 06:56:16;;;;;;;8.33;6.90;;;;;;;8.72;64.73;99354.34;4730420;29;104543;-75
2021/04/24 06:58:43;;;;;;;9.93;6.70;;;;;;;8.83;64.02;99361.66;4725470;29;103430;-78
2021/04/24 07:01:10;;;;;;;8.83;7.07;;;;;;;9.14;62.78;99359.03;4737615;29;103387;-80
2021/04/24 07:03:39;;;;;;;9.00;6.40;;;;;;;9.39;62.74;99361.13;4748090;29;109487;-87
2021/04/24 07:06:07;;;;;;;9.00;6.37;;;;;;;9.44;62.62;99359.94;4737865;29;104242;-75
2021/04/24 07:08:34;;;;;;;6.90;5.77;;;;;;;9.75;61.98;99349.31;4742456;29;103025;-75
2021/04/24 07:11:01;;;;;;;9.50;7.30;;;;;;;9.78;60.90;99354.41;4741877;29;103657;-75
2021/04/24 07:13:31;;;;;;;9.80;7.00;;;;;;;10.17;59.45;99351.22;4751961;29;105305;-78
2021/04/24 07:16:02;;;;;;;11.77;6.57;;;;;;;10.42;59.17;99350.56;4739298;29;103768;-77
2021/04/24 07:18:30;;;;;;;11.77;7.80;;;;;;;10.08;58.41;99345.59;4740155;29;103103;-76
2021/04/24 07:20:58;;;;;;;8.77;6.37;;;;;;;10.39;58.49;99346.31;4755944;29;103258;-80
2021/04/24 07:23:31;;;;;;;9.30;6.57;;;;;;;10.64;58.74;99352.75;4738201;29;103936;-76
2021/04/24 07:25:59;;;;;;;13.57;8.50;;;;;;;10.76;56.87;99358.09;4746139;29;104823;-76
2021/04/24 07:28:26;;;;;;;10.93;7.87;;;;;;;10.71;56.39;99352.25;4749105;29;103234;-74
2021/04/24 07:30:54;;;;;;;9.87;7.30;;;;;;;11.09;56.00;99347.16;4738894;29;103005;-75
2021/04/24 07:33:23;;;;;;;7.37;6.27;;;;;;;11.80;55.29;99337.19;4734339;29;103504;-75
2021/04/24 07:35:52;;;;;;;11.27;7.47;;;;;;;11.93;55.34;99330.09;4752462;29;111076;-79
2021/04/24 07:38:32;;;;;;;9.43;7.03;;;;;;;12.30;54.55;99346.13;4740553;29;102822;-75
2021/04/24 07:41:09;;;;;;;9.57;7.57;;;;;;;12.56;52.81;99326.59;4739321;29;103021;-76
2021/04/24 07:43:39;;;;;;;7.50;6.67;;;;;;;13.00;52.07;99337.53;4743288;29;104455;-75
2021/04/24 07:46:06;;;;;;;10.67;7.90;;;;;;;12.67;52.58;99338.16;4738020;29;104413;-73
2021/04/24 07:48:33;;;;;;;11.07;7.63;;;;;;;12.30;54.39;99327.56;4733406;29;103144;-77
2021/04/24 07:51:00;;;;;;;12.93;8.57;;;;;;;12.61;53.37;99332.44;4732787;29;103825;-75
2021/04/24 07:53:27;;;;;;;7.90;6.43;;;;;;;13.26;52.05;99325.94;4735574;29;104682;-77
2021/04/24 07:55:55;;;;;;;11.60;7.10;;;;;;;13.95;50.47;99324.25;4734816;29;103820;-75
2021/04/24 07:58:22;;;;;;;17.50;9.17;;;;;;;12.85;51.81;99330.72;4736084;29;103020;-76
2021/04/24 08:00:52;;;;;;;11.57;8.07;;;;;;;13.62;49.97;99322.34;4735183;29;103511;-76
2021/04/24 08:03:19;;;;;;;13.07;7.50;;;;;;;14.19;49.23;99321.53;4732418;29;107767;-75
2021/04/24 08:05:46;;;;;;;10.43;6.60;;;;;;;14.12;49.88;99315.00;4715915;29;103845;-75
2021/04/24 08:08:13;;;;;;;7.97;6.87;;;;;;;15.11;48.48;99324.81;4739639;29;103326;-79
2021/04/24 08:10:41;;;;;;;11.80;6.97;;;;;;;15.45;47.60;99313.09;4741957;29;103012;-79
2021/04/24 08:13:09;;;;;;;11.97;7.50;;;;;;;15.87;45.63;99321.16;4747567;29;103850;-79
2021/04/24 08:15:36;;;;;;;10.27;7.10;;;;;;;15.18;45.24;99323.34;4749025;29;103782;-77
2021/04/24 08:18:04;;;;;;;9.67;7.40;;;;;;;16.06;44.83;99323.97;4735839;29;103142;-78
2021/04/24 08:20:31;;;;;;;8.17;6.87;;;;;;;16.73;43.71;99321.69;4741069;29;103361;-79
2021/04/24 08:22:58;;;;;;;10.97;7.43;;;;;;;16.04;45.52;99321.44;4737838;29;105653;-76
2021/04/24 08:25:25;;;;;;;9.83;6.20;;;;;;;16.77;43.94;99317.78;4734715;29;103757;-79
2021/04/24 08:27:52;;;;;;;10.30;7.07;;;;;;;17.16;41.61;99318.72;4742783;29;103178;-76
2021/04/24 08:30:21;;;;;;;9.87;7.90;;;;;;;17.36;41.54;99309.78;4735493;29;103218;-80
2021/04/24 08:32:50;;;;;;;9.47;6.33;;;;;;;17.65;41.16;99316.03;4738013;29;106123;-79
2021/04/24 08:35:17;;;;;;;9.13;6.63;;;;;;;17.83;41.59;99314.31;4744272;29;103385;-80
2021/04/24 08:37:45;;;;;;;9.30;6.63;;;;;;;18.06;39.25;99300.63;4733208;29;103232;-80
2021/04/24 08:40:15;;;;;;;11.53;8.33;;;;;;;16.89;40.31;99307.84;4740326;29;103631;-82
2021/04/24 08:42:43;;;;;;;11.80;7.33;;;;;;;17.42;41.75;99303.03;4755134;29;104425;-82
2021/04/24 08:45:15;;;;;;;9.73;8.00;;;;;;;17.95;40.64;99297.16;4741503;29;103282;-84
2021/04/24 08:47:45;;;;;;;9.33;7.73;;;;;;;17.88;39.08;99301.38;4735148;29;103349;-88
2021/04/24 08:50:16;;;;;;;14.93;8.67;;;;;;;17.57;40.72;99301.69;4746129;29;102994;-94
2021/04/24 08:52:43;;;;;;;9.23;6.57;;;;;;;18.37;39.24;99297.63;4747728;29;103979;-90
2021/04/24 08:55:16;;;;;;;10.68;7.40;;;;;;;18.14;40.06;99295.41;4737083;29;102785;-89
2021/04/24 08:57:43;;;;;;;11.63;8.97;;;;;;;17.89;39.66;99292.38;4737615;29;102967;-88
2021/04/24 09:00:12;;;;;;;12.43;7.80;;;;;;;18.15;39.41;99297.13;4735420;29;102572;-88
2021/04/24 09:02:43;;;;;;;9.55;7.38;;;;;;;19.05;38.10;99288.34;4746078;29;103603;-90
2021/04/24 09:05:13;;;;;;;13.88;8.70;;;;;;;17.75;39.16;99284.78;4737038;29;103401;-90
2021/04/24 09:07:40;;;;;;;12.10;7.63;;;;;;;18.94;38.10;99290.38;4742637;29;103126;-91
2021/04/24 09:10:15;;;;;;;10.35;8.05;;;;;;;18.70;38.22;99285.53;4738611;29;103076;-92
2021/04/24 09:12:45;;;;;;;14.57;8.25;;;;;;;18.47;37.74;99286.88;4738378;29;104633;-87
2021/04/24 09:15:18;;;;;;;10.18;8.57;;;;;;;17.01;40.02;99293.44;4741545;29;103573;-87
2021/04/24 09:17:58;;;;;;;11.25;8.15;;;;;;;18.80;37.95;99283.69;4738353;29;103169;-88
2021/04/24 09:20:28;;;;;;;10.88;7.28;;;;;;;19.77;37.63;99271.31;4738731;29;102777;-88
2021/04/24 09:23:07;;;;;;;10.13;7.18;;;;;;;19.29;36.73;99273.50;4737956;29;103823;-86
2021/04/24 09:25:41;;;;;;;12.88;8.13;;;;;;;17.60;38.70;99272.84;4739165;29;103566;-87
2021/04/24 09:28:10;;;;;;;10.30;7.78;;;;;;;18.62;38.07;99274.75;4740577;29;103152;-87
2021/04/24 09:30:40;;;;;;;9.48;7.82;;;;;;;17.20;38.42;99272.09;4742331;29;106056;-86
2021/04/24 09:33:14;;;;;;;11.20;7.63;;;;;;;17.62;38.19;99272.72;4735506;29;106381;-85
2021/04/24 09:35:51;;;;;;;11.40;8.18;;;;;;;18.30;36.94;99260.91;4746099;29;104545;-85
2021/04/24 09:38:22;;;;;;;9.80;8.00;;;;;;;18.05;36.86;99261.53;4738362;29;103188;-79
2021/04/24 09:41:08;;;;;;;12.77;8.63;;;;;;;19.20;35.57;99255.69;4745694;29;103196;-79
2021/04/24 09:43:53;;;;;;;8.75;7.20;;;;;;;20.21;36.44;99256.88;4727499;29;104362;-76
2021/04/24 09:46:21;;;;;;;10.55;7.65;;;;;;;20.02;36.17;99251.72;4737034;29;110475;-76
2021/04/24 09:48:49;;;;;;;11.00;7.40;;;;;;;19.39;35.10;99244.84;4741879;29;103704;-77
2021/04/24 09:51:19;;;;;;;11.80;7.55;;;;;;;19.61;35.53;99244.38;4741985;29;103150;-77
2021/04/24 09:53:57;;;;;;;11.27;8.32;;;;;;;19.06;33.41;99247.16;4736901;29;104501;-77
2021/04/24 09:56:25;;;;;;;8.52;7.00;;;;;;;19.58;36.40;99239.31;4740245;29;103415;-76
2021/04/24 09:59:01;;;;;;;12.80;9.35;;;;;;;19.32;36.14;99235.69;4740101;29;103806;-77
2021/04/24 10:01:31;;;;;;;11.57;8.18;;;;;;;19.75;36.23;99226.88;4739628;29;103102;-78
2021/04/24 10:04:01;;;;;;;10.68;8.32;;;;;;;19.17;35.33;99221.16;4737541;29;103234;-77
2021/04/24 10:06:33;;;;;;;13.13;8.93;;;;;;;18.98;34.96;99222.97;4739413;29;103759;-77
2021/04/24 10:09:18;;;;;;;9.07;7.75;;;;;;;19.45;38.23;99222.81;4745317;29;102976;-79
2021/04/24 10:11:49;;;;;;;9.80;7.90;;;;;;;19.35;34.85;99224.66;4732105;29;103133;-84
2021/04/24 10:14:30;;;;;;;9.82;8.77;;;;;;;18.25;33.75;99212.34;4739350;29;103350;-84
2021/04/24 10:16:57;;;;;;;11.18;8.23;;;;;;;19.13;34.53;99206.38;4736276;29;103738;-78
2021/04/24 10:19:27;;;;;;;10.20;7.95;;;;;;;20.39;34.03;99213.06;4739396;29;102951;-78
2021/04/24 10:21:55;;;;;;;12.07;7.70;;;;;;;20.38;34.53;99209.53;4738038;29;104876;-81
2021/04/24 10:24:23;;;;;;;11.45;8.27;;;;;;;19.54;33.28;99216.50;4738490;29;105043;-85
2021/04/24 10:26:51;;;;;;;9.45;7.72;;;;;;;20.04;33.31;99212.16;4751192;29;102998;-82
2021/04/24 10:29:19;;;;;;;11.75;8.43;;;;;;;19.15;31.37;99207.91;4747064;29;103176;-81
2021/04/24 10:31:48;;;;;;;10.18;7.78;;;;;;;19.20;30.35;99200.25;4739410;29;103250;-80
2021/04/24 10:34:16;;;;;;;8.23;7.30;;;;;;;20.02;30.79;99208.81;4738559;29;104453;-82
2021/04/24 10:36:46;;;;;;;8.77;6.88;;;;;;;20.04;31.66;99201.44;4739223;29;103669;-85
2021/04/24 10:39:20;;;;;;;9.02;7.63;;;;;;;19.64;31.27;99198.50;4723252;29;102754;-85
2021/04/24 10:41:56;;;;;;;10.60;8.23;;;;;;;20.22;30.70;99204.06;4733007;29;103167;-85
2021/04/24 10:44:24;;;;;;;9.52;7.82;;;;;;;19.74;30.49;99199.22;4745410;29;103138;-78
2021/04/24 10:46:53;;;;;;;12.05;8.32;;;;;;;18.41;31.57;99199.19;4737671;29;103950;-79
2021/04/24 10:49:27;;;;;;;8.82;7.80;;;;;;;19.73;31.06;99191.38;4738353;29;103090;-83
2021/04/24 10:52:05;;;;;;;9.55;7.80;;;;;;;20.34;31.34;99199.28;4738341;29;103171;-90
2021/04/24 10:54:37;;;;;;;11.45;8.20;;;;;;;19.30;31.15;99194.81;4734801;29;107148;-81
2021/04/24 10:57:36;;;;;;;11.05;8.13;;;;;;;19.41;30.69;99184.75;4736967;29;104322;-83
2021/04/24 11:00:04;;;;;;;11.32;8.20;;;;;;;18.96;29.92;99187.47;4716604;29;102883;-88
2021/04/24 11:02:39;;;;;;;15.10;8.82;;;;;;;19.44;32.13;99188.97;4744142;29;104127;-85
2021/04/24 11:05:26;;;;;;;9.30;7.63;;;;;;;20.45;29.89;99182.91;4736202;29;109619;-86
2021/04/24 11:08:26;;;;;;;10.55;7.57;;;;;;;21.08;30.36;99180.63;4737192;29;104808;-77
2021/04/24 11:10:57;;;;;;;10.35;7.43;;;;;;;20.08;30.14;99178.69;4693118;29;103604;-87
2021/04/24 11:13:27;;;;;;;10.07;7.88;;;;;;;20.40;30.08;99175.34;4729469;29;103581;-87
2021/04/24 11:15:55;;;;;;;8.93;7.25;;;;;;;20.93;30.58;99171.47;4726450;29;104199;-83
2021/04/24 11:18:24;;;;;;;7.82;6.63;;;;;;;21.56;29.85;99161.78;4729663;29;103234;-81
2021/04/24 11:20:56;;;;;;;12.63;7.85;;;;;;;21.48;29.32;99161.81;4720750;29;103160;-87
2021/04/24 11:23:53;;;;;;;8.80;7.70;;;;;;;22.09;28.56;99161.22;4723871;29;104432;-85
2021/04/24 11:26:49;;;;;;;7.78;6.47;;;;;;;20.89;28.71;99157.53;4730485;29;103938;-89
2021/04/24 11:29:19;;;;;;;9.88;8.27;;;;;;;19.86;30.39;99159.59;4724199;29;104385;-86
2021/04/24 11:31:58;;;;;;;8.70;7.38;;;;;;;21.18;30.89;99149.03;4730665;29;103176;-83
2021/04/24 11:34:27;;;;;;;12.60;8.30;;;;;;;21.71;29.21;99152.03;4723826;29;103452;-87
2021/04/24 11:37:33;;;;;;;12.50;8.80;;;;;;;19.13;30.26;99151.00;4726083;29;104189;-84